Airfield :
LOGIN :

Register | Disclaimer

   EN    FR    IT 

 










Legend :    VFR   Marginal VFR   IFR   Intensive IFR   Very Intensive IFR
Visi :
Ceiling :
>= 8 km
>= 3000ft
5 to 8 km
1000 to 3000 ft
1500m to 5 km
500 to 1000 ft
800 to 1500m
200 to 500 ft
< 800m
< 200 ft
Symbols :   Thunderstorms  Fog  Heavy snow  Heavy precipitations  Wind > 20 kt
SIGMETs :     Misc.  Thunderstorms  Icing  Turbulence  Mountain Waves  Volcanic Ashes







- Airport Elevation : 336 ft
- IATA code : GCI
- Download approach charts


EGJB - Guernsey

CURRENT METAR :
  • 191950Z 24020KT 9999 FEW007 BKN018 13/11 Q1000

EXPIRED METARs :
  • 191920Z 25023KT 9999 FEW007 BKN015 14/12 Q1000
  • 191850Z 24022KT 9999 FEW005 SCT015 BKN045 13/12 Q0999
  • 191820Z 24019KT 9999 -RA SCT005 SCT012 BKN035 13/13 Q0999 RERA
  • 191750Z 17023G33KT 6000 -RADZ SCT005 BKN009 BKN015 14/14 Q0998 RERA REDZ
  • 191720Z 17022G33KT 7000 RA BKN005 BKN012 14/13 Q0998 RERA

TAF TAF EGJB
Valid from the 19 at 18:00 until the 20 at 03:00 UTC


191709Z 1918/2003 18022G32KT 9999 -RA FEW005 BKN020
TEMPO 1918/1920 3000 RADZ BKN006
PROB30
TEMPO 1918/1919 2000 +RA BKN002
BECMG 1918/1921 24023KT
ATIS : +44 1481 238 957
No reported NOTAMs for that airfield.
3 SIGMETs reported for the Brest FIR (LFRR) :
 
Severe turbulence
LFRR SIGMET 8 VALID 192000/192300 LFPW
LFRR BREST FIR/UIR SEV TURB FCST WI N4930 W00115 - N4700 W00045 - N4630 W00245 - N4900 W00545 FL180/310 MOV NE 30KT NC=
Severe turbulence
LFRR SIGMET 7 VALID 191900/192300 LFPW
LFRR BREST FIR/UIR SEV TURB OBS WI N4915 W00700 - N5000 W00200 - N5000 W00015 - N4815 W00015 - N4630 W00215 - N4715 W00330 - N4830 W00315 - N4845 W00600 SFC/FL060 MOV NE 30KT NC=
Severe turbulence
LFRR SIGMET 6 VALID 191800/192200 LFPW
LFRR BREST FIR/UIR SEV TURB FCST WI N4545 W00145 - N4330 W00145 - N4400 W00330 - N4630 W00430 - N4645 W00215 FL220/310 MOV E 30KT WKN=



MET'MAP, your aeronautical weather chart ! - Copyright ORBIFLY December 2007 - Disclaimer

ORBIFLY MET'MAP TEAM :

Programming & Development : Alexandra Zaïnal
Concept & Development : Baudouin d'Aumeries
Co-Development & Prog : Marc-Olivier Méhu
Technical & hardware support : Manuel Goepfert

Contact : metmap@orbifly.com




SOURCES & CREDITS :

   NOAA